sensor_id;sensor_type;location;lat;lon;timestamp;temperature;humidity
71128;SHT30;59249;59.736;30.568;2024-03-23T00:53:36;4.57;97.09
71128;SHT30;59249;59.736;30.568;2024-03-23T00:56:05;4.51;97.01
71128;SHT30;59249;59.736;30.568;2024-03-23T00:58:38;4.48;97.31
71128;SHT30;59249;59.736;30.568;2024-03-23T01:01:09;4.42;97.29
71128;SHT30;59249;59.736;30.568;2024-03-23T01:03:36;4.43;97.35
71128;SHT30;59249;59.736;30.568;2024-03-23T01:06:19;4.46;97.55
71128;SHT30;59249;59.736;30.568;2024-03-23T01:09:05;4.46;97.62
71128;SHT30;59249;59.736;30.568;2024-03-23T01:11:38;4.40;97.79
71128;SHT30;59249;59.736;30.568;2024-03-23T01:14:09;4.48;97.72
71128;SHT30;59249;59.736;30.568;2024-03-23T01:16:39;4.48;97.99
71128;SHT30;59249;59.736;30.568;2024-03-23T01:19:15;4.40;98.50
71128;SHT30;59249;59.736;30.568;2024-03-23T01:21:49;4.45;98.50
71128;SHT30;59249;59.736;30.568;2024-03-23T01:24:23;4.37;98.86
71128;SHT30;59249;59.736;30.568;2024-03-23T01:26:50;4.32;98.91
71128;SHT30;59249;59.736;30.568;2024-03-23T01:29:19;4.43;99.22
71128;SHT30;59249;59.736;30.568;2024-03-23T01:31:47;4.49;99.50
71128;SHT30;59249;59.736;30.568;2024-03-23T01:34:14;4.31;99.60
71128;SHT30;59249;59.736;30.568;2024-03-23T01:36:41;4.37;99.78
71128;SHT30;59249;59.736;30.568;2024-03-23T01:39:11;4.37;99.99
71128;SHT30;59249;59.736;30.568;2024-03-23T01:41:45;4.34;99.99
71128;SHT30;59249;59.736;30.568;2024-03-23T01:44:21;4.49;99.99
71128;SHT30;59249;59.736;30.568;2024-03-23T01:46:57;4.37;99.99
71128;SHT30;59249;59.736;30.568;2024-03-23T01:49:32;4.52;99.99
71128;SHT30;59249;59.736;30.568;2024-03-23T01:52:07;4.38;99.95
71128;SHT30;59249;59.736;30.568;2024-03-23T01:54:42;4.37;99.99
71128;SHT30;59249;59.736;30.568;2024-03-23T01:57:22;4.50;99.99
71128;SHT30;59249;59.736;30.568;2024-03-23T01:59:54;4.44;99.99
71128;SHT30;59249;59.736;30.568;2024-03-23T02:02:27;4.42;99.99
71128;SHT30;59249;59.736;30.568;2024-03-23T02:04:56;4.51;99.99
71128;SHT30;59249;59.736;30.568;2024-03-23T02:07:26;4.44;99.99
71128;SHT30;59249;59.736;30.568;2024-03-23T02:10:02;4.42;99.99
71128;SHT30;59249;59.736;30.568;2024-03-23T02:12:38;4.39;99.99
71128;SHT30;59249;59.736;30.568;2024-03-23T02:15:09;4.48;99.99
71128;SHT30;59249;59.736;30.568;2024-03-23T02:17:59;4.58;99.99
71128;SHT30;59249;59.736;30.568;2024-03-23T02:20:33;4.44;99.99
71128;SHT30;59249;59.736;30.568;2024-03-23T02:23:09;4.59;99.99
71128;SHT30;59249;59.736;30.568;2024-03-23T02:25:48;4.65;99.99
71128;SHT30;59249;59.736;30.568;2024-03-23T02:28:18;4.59;99.99
71128;SHT30;59249;59.736;30.568;2024-03-23T02:30:56;4.55;99.99
71128;SHT30;59249;59.736;30.568;2024-03-23T02:33:39;4.62;99.99
71128;SHT30;59249;59.736;30.568;2024-03-23T02:36:08;4.67;99.99
71128;SHT30;59249;59.736;30.568;2024-03-23T02:38:42;4.54;99.99
71128;SHT30;59249;59.736;30.568;2024-03-23T02:41:13;4.62;99.99
71128;SHT30;59249;59.736;30.568;2024-03-23T02:43:44;4.53;99.99
71128;SHT30;59249;59.736;30.568;2024-03-23T02:46:14;4.65;99.99
71128;SHT30;59249;59.736;30.568;2024-03-23T02:48:41;4.61;99.99
71128;SHT30;59249;59.736;30.568;2024-03-23T02:51:09;4.63;99.99
71128;SHT30;59249;59.736;30.568;2024-03-23T02:53:38;4.58;99.99
71128;SHT30;59249;59.736;30.568;2024-03-23T02:56:06;4.74;99.99
71128;SHT30;59249;59.736;30.568;2024-03-23T02:58:36;4.62;99.99
71128;SHT30;59249;59.736;30.568;2024-03-23T03:01:05;4.68;99.99
71128;SHT30;59249;59.736;30.568;2024-03-23T03:03:32;4.69;99.99
71128;SHT30;59249;59.736;30.568;2024-03-23T03:06:00;4.67;99.99
71128;SHT30;59249;59.736;30.568;2024-03-23T03:08:27;4.75;99.99
71128;SHT30;59249;59.736;30.568;2024-03-23T03:10:57;4.76;99.99
71128;SHT30;59249;59.736;30.568;2024-03-23T03:13:23;4.60;99.99
71128;SHT30;59249;59.736;30.568;2024-03-23T03:15:52;4.72;99.99
71128;SHT30;59249;59.736;30.568;2024-03-23T03:18:22;4.66;99.99
71128;SHT30;59249;59.736;30.568;2024-03-23T03:21:01;4.75;99.99
71128;SHT30;59249;59.736;30.568;2024-03-23T03:23:34;4.70;99.99
71128;SHT30;59249;59.736;30.568;2024-03-23T03:26:08;4.69;99.99
71128;SHT30;59249;59.736;30.568;2024-03-23T03:28:38;4.74;99.99
71128;SHT30;59249;59.736;30.568;2024-03-23T03:31:06;4.73;99.99
71128;SHT30;59249;59.736;30.568;2024-03-23T03:33:33;4.84;99.99
71128;SHT30;59249;59.736;30.568;2024-03-23T03:36:01;4.88;99.99
71128;SHT30;59249;59.736;30.568;2024-03-23T03:38:28;4.84;99.99
71128;SHT30;59249;59.736;30.568;2024-03-23T03:40:56;4.88;99.99
71128;SHT30;59249;59.736;30.568;2024-03-23T03:43:26;4.81;99.99
71128;SHT30;59249;59.736;30.568;2024-03-23T03:45:56;4.93;99.99
71128;SHT30;59249;59.736;30.568;2024-03-23T03:48:23;4.98;99.99
71128;SHT30;59249;59.736;30.568;2024-03-23T03:50:52;4.86;99.99
71128;SHT30;59249;59.736;30.568;2024-03-23T03:53:19;4.92;99.99
71128;SHT30;59249;59.736;30.568;2024-03-23T03:55:47;5.07;99.99
71128;SHT30;59249;59.736;30.568;2024-03-23T03:58:15;5.01;99.99
71128;SHT30;59249;59.736;30.568;2024-03-23T04:00:46;4.99;99.99
71128;SHT30;59249;59.736;30.568;2024-03-23T04:03:13;5.00;99.99
71128;SHT30;59249;59.736;30.568;2024-03-23T04:05:49;5.09;99.99
71128;SHT30;59249;59.736;30.568;2024-03-23T04:08:17;5.10;99.99
71128;SHT30;59249;59.736;30.568;2024-03-23T04:10:48;5.09;99.99
71128;SHT30;59249;59.736;30.568;2024-03-23T04:13:20;5.07;99.99
71128;SHT30;59249;59.736;30.568;2024-03-23T04:15:57;5.09;99.99
71128;SHT30;59249;59.736;30.568;2024-03-23T04:18:25;5.13;99.99
71128;SHT30;59249;59.736;30.568;2024-03-23T04:20:55;5.04;99.99
71128;SHT30;59249;59.736;30.568;2024-03-23T04:23:24;5.23;99.99
71128;SHT30;59249;59.736;30.568;2024-03-23T04:25:52;5.21;99.99
71128;SHT30;59249;59.736;30.568;2024-03-23T04:28:20;5.19;99.99
71128;SHT30;59249;59.736;30.568;2024-03-23T04:30:49;5.18;99.91
71128;SHT30;59249;59.736;30.568;2024-03-23T04:33:17;5.19;99.67
71128;SHT30;59249;59.736;30.568;2024-03-23T04:35:49;5.28;99.44
71128;SHT30;59249;59.736;30.568;2024-03-23T04:38:19;5.32;98.86
71128;SHT30;59249;59.736;30.568;2024-03-23T04:40:55;5.30;99.00
71128;SHT30;59249;59.736;30.568;2024-03-23T04:43:23;5.32;98.54
71128;SHT30;59249;59.736;30.568;2024-03-23T04:45:53;5.39;98.65
71128;SHT30;59249;59.736;30.568;2024-03-23T04:48:37;5.40;98.55
71128;SHT30;59249;59.736;30.568;2024-03-23T04:51:06;5.37;98.38
71128;SHT30;59249;59.736;30.568;2024-03-23T04:53:38;5.40;98.62
71128;SHT30;59249;59.736;30.568;2024-03-23T04:56:07;5.38;98.46
71128;SHT30;59249;59.736;30.568;2024-03-23T04:58:42;5.33;98.42
71128;SHT30;59249;59.736;30.568;2024-03-23T05:01:11;5.43;98.05
71128;SHT30;59249;59.736;30.568;2024-03-23T05:03:41;5.40;97.72
71128;SHT30;59249;59.736;30.568;2024-03-23T05:06:12;5.43;97.70
71128;SHT30;59249;59.736;30.568;2024-03-23T05:08:40;5.45;97.60
71128;SHT30;59249;59.736;30.568;2024-03-23T05:11:09;5.47;97.75
71128;SHT30;59249;59.736;30.568;2024-03-23T05:13:37;5.38;97.11
71128;SHT30;59249;59.736;30.568;2024-03-23T05:16:08;5.46;96.45
71128;SHT30;59249;59.736;30.568;2024-03-23T05:18:35;5.47;96.48
71128;SHT30;59249;59.736;30.568;2024-03-23T05:21:11;5.43;96.53
71128;SHT30;59249;59.736;30.568;2024-03-23T05:23:38;5.54;96.04
71128;SHT30;59249;59.736;30.568;2024-03-23T05:26:09;5.54;95.84
71128;SHT30;59249;59.736;30.568;2024-03-23T05:28:50;5.69;95.35
71128;SHT30;59249;59.736;30.568;2024-03-23T05:31:25;5.59;95.28
71128;SHT30;59249;59.736;30.568;2024-03-23T05:33:55;5.72;95.33
71128;SHT30;59249;59.736;30.568;2024-03-23T05:36:26;5.70;94.99
71128;SHT30;59249;59.736;30.568;2024-03-23T05:38:54;5.78;94.88
71128;SHT30;59249;59.736;30.568;2024-03-23T05:41:22;5.69;94.34
71128;SHT30;59249;59.736;30.568;2024-03-23T05:43:52;5.64;94.04
71128;SHT30;59249;59.736;30.568;2024-03-23T05:46:23;5.75;93.98
71128;SHT30;59249;59.736;30.568;2024-03-23T05:48:53;5.70;93.61
71128;SHT30;59249;59.736;30.568;2024-03-23T05:51:31;5.73;93.73
71128;SHT30;59249;59.736;30.568;2024-03-23T05:53:58;5.79;93.55
71128;SHT30;59249;59.736;30.568;2024-03-23T05:56:28;5.82;93.20
71128;SHT30;59249;59.736;30.568;2024-03-23T05:58:55;5.84;93.29
71128;SHT30;59249;59.736;30.568;2024-03-23T06:01:23;5.95;93.70
71128;SHT30;59249;59.736;30.568;2024-03-23T06:03:50;5.91;93.43
71128;SHT30;59249;59.736;30.568;2024-03-23T06:06:24;5.98;93.09
71128;SHT30;59249;59.736;30.568;2024-03-23T06:08:53;5.95;92.33
71128;SHT30;59249;59.736;30.568;2024-03-23T06:11:22;6.04;92.88
71128;SHT30;59249;59.736;30.568;2024-03-23T06:13:56;5.98;93.05
71128;SHT30;59249;59.736;30.568;2024-03-23T06:16:33;5.98;92.48
71128;SHT30;59249;59.736;30.568;2024-03-23T06:19:09;6.13;92.40
71128;SHT30;59249;59.736;30.568;2024-03-23T06:21:43;6.19;91.87
71128;SHT30;59249;59.736;30.568;2024-03-23T06:24:12;6.23;91.73
71128;SHT30;59249;59.736;30.568;2024-03-23T06:26:40;6.24;91.37
71128;SHT30;59249;59.736;30.568;2024-03-23T06:29:07;6.32;91.44
71128;SHT30;59249;59.736;30.568;2024-03-23T06:31:39;6.32;91.05
71128;SHT30;59249;59.736;30.568;2024-03-23T06:34:08;6.33;90.48
71128;SHT30;59249;59.736;30.568;2024-03-23T06:36:36;6.42;90.76
71128;SHT30;59249;59.736;30.568;2024-03-23T06:39:05;6.49;90.30
71128;SHT30;59249;59.736;30.568;2024-03-23T06:41:34;6.52;89.92
71128;SHT30;59249;59.736;30.568;2024-03-23T06:44:02;6.52;89.41
71128;SHT30;59249;59.736;30.568;2024-03-23T06:46:31;6.50;89.52
71128;SHT30;59249;59.736;30.568;2024-03-23T06:48:58;6.55;89.21
71128;SHT30;59249;59.736;30.568;2024-03-23T06:51:33;6.72;88.93
71128;SHT30;59249;59.736;30.568;2024-03-23T06:54:17;6.65;88.57
71128;SHT30;59249;59.736;30.568;2024-03-23T06:56:48;6.72;88.79
71128;SHT30;59249;59.736;30.568;2024-03-23T06:59:15;6.62;88.10
71128;SHT30;59249;59.736;30.568;2024-03-23T07:01:44;6.69;88.19
71128;SHT30;59249;59.736;30.568;2024-03-23T07:04:15;6.71;88.22
71128;SHT30;59249;59.736;30.568;2024-03-23T07:06:59;6.57;87.85
71128;SHT30;59249;59.736;30.568;2024-03-23T07:09:34;6.65;87.89
71128;SHT30;59249;59.736;30.568;2024-03-23T07:12:05;6.56;88.19
71128;SHT30;59249;59.736;30.568;2024-03-23T07:14:34;6.67;88.15
71128;SHT30;59249;59.736;30.568;2024-03-23T07:17:01;6.71;88.63
71128;SHT30;59249;59.736;30.568;2024-03-23T07:19:30;6.68;88.51
71128;SHT30;59249;59.736;30.568;2024-03-23T07:21:57;6.65;88.06
71128;SHT30;59249;59.736;30.568;2024-03-23T07:24:25;6.69;88.08
71128;SHT30;59249;59.736;30.568;2024-03-23T07:26:52;6.67;88.06
71128;SHT30;59249;59.736;30.568;2024-03-23T07:29:25;6.75;88.14
71128;SHT30;59249;59.736;30.568;2024-03-23T07:31:52;6.70;87.97
71128;SHT30;59249;59.736;30.568;2024-03-23T07:34:20;6.64;88.08
71128;SHT30;59249;59.736;30.568;2024-03-23T07:36:48;6.71;88.35
71128;SHT30;59249;59.736;30.568;2024-03-23T07:39:16;6.62;88.48
71128;SHT30;59249;59.736;30.568;2024-03-23T07:41:45;6.65;88.27
71128;SHT30;59249;59.736;30.568;2024-03-23T07:44:13;6.63;88.07
71128;SHT30;59249;59.736;30.568;2024-03-23T07:46:41;6.73;88.19
71128;SHT30;59249;59.736;30.568;2024-03-23T07:49:09;6.75;87.97
71128;SHT30;59249;59.736;30.568;2024-03-23T07:51:36;6.80;87.90
71128;SHT30;59249;59.736;30.568;2024-03-23T07:54:06;6.80;86.72
71128;SHT30;59249;59.736;30.568;2024-03-23T07:56:33;6.91;87.03
71128;SHT30;59249;59.736;30.568;2024-03-23T07:59:01;7.03;86.78
71128;SHT30;59249;59.736;30.568;2024-03-23T08:01:30;7.05;86.13
71128;SHT30;59249;59.736;30.568;2024-03-23T08:04:00;6.87;86.67
71128;SHT30;59249;59.736;30.568;2024-03-23T08:06:27;7.06;87.06
71128;SHT30;59249;59.736;30.568;2024-03-23T08:08:57;7.11;86.74
71128;SHT30;59249;59.736;30.568;2024-03-23T08:11:27;7.00;85.61
71128;SHT30;59249;59.736;30.568;2024-03-23T08:13:56;6.99;86.06
71128;SHT30;59249;59.736;30.568;2024-03-23T08:16:24;7.08;86.54
71128;SHT30;59249;59.736;30.568;2024-03-23T08:18:52;7.21;87.03
71128;SHT30;59249;59.736;30.568;2024-03-23T08:21:21;7.10;86.27
71128;SHT30;59249;59.736;30.568;2024-03-23T08:23:49;7.09;86.04
71128;SHT30;59249;59.736;30.568;2024-03-23T08:26:20;7.03;86.47
71128;SHT30;59249;59.736;30.568;2024-03-23T08:28:48;6.86;86.80
71128;SHT30;59249;59.736;30.568;2024-03-23T08:31:15;6.87;86.82
71128;SHT30;59249;59.736;30.568;2024-03-23T08:33:43;6.93;86.43
71128;SHT30;59249;59.736;30.568;2024-03-23T08:36:11;6.87;86.51
71128;SHT30;59249;59.736;30.568;2024-03-23T08:38:42;6.90;87.20
71128;SHT30;59249;59.736;30.568;2024-03-23T08:41:10;6.96;86.89
71128;SHT30;59249;59.736;30.568;2024-03-23T08:43:41;6.94;86.66
71128;SHT30;59249;59.736;30.568;2024-03-23T08:46:10;7.05;86.21
71128;SHT30;59249;59.736;30.568;2024-03-23T08:48:40;7.02;86.21
71128;SHT30;59249;59.736;30.568;2024-03-23T08:51:08;7.07;86.26
71128;SHT30;59249;59.736;30.568;2024-03-23T08:53:37;7.20;86.29
71128;SHT30;59249;59.736;30.568;2024-03-23T08:56:07;7.16;86.44
71128;SHT30;59249;59.736;30.568;2024-03-23T08:58:38;7.16;86.45
71128;SHT30;59249;59.736;30.568;2024-03-23T09:01:12;7.08;86.60
71128;SHT30;59249;59.736;30.568;2024-03-23T09:03:42;7.05;86.88
71128;SHT30;59249;59.736;30.568;2024-03-23T09:06:13;6.86;86.77
71128;SHT30;59249;59.736;30.568;2024-03-23T09:09:00;6.81;87.80
71128;SHT30;59249;59.736;30.568;2024-03-23T09:11:36;6.64;87.80
71128;SHT30;59249;59.736;30.568;2024-03-23T09:14:05;6.79;88.88
71128;SHT30;59249;59.736;30.568;2024-03-23T09:16:33;6.75;88.96
71128;SHT30;59249;59.736;30.568;2024-03-23T09:19:01;6.75;89.38
71128;SHT30;59249;59.736;30.568;2024-03-23T09:21:28;6.65;89.39
71128;SHT30;59249;59.736;30.568;2024-03-23T09:23:56;6.68;89.92
71128;SHT30;59249;59.736;30.568;2024-03-23T09:26:22;6.70;90.80
71128;SHT30;59249;59.736;30.568;2024-03-23T09:28:52;6.54;88.81
71128;SHT30;59249;59.736;30.568;2024-03-23T09:31:21;6.49;88.65
71128;SHT30;59249;59.736;30.568;2024-03-23T09:33:49;6.42;88.86
71128;SHT30;59249;59.736;30.568;2024-03-23T09:36:16;6.35;89.78
71128;SHT30;59249;59.736;30.568;2024-03-23T09:38:46;6.31;90.08
71128;SHT30;59249;59.736;30.568;2024-03-23T09:41:17;6.24;90.04
71128;SHT30;59249;59.736;30.568;2024-03-23T09:43:45;6.28;90.33
71128;SHT30;59249;59.736;30.568;2024-03-23T09:46:16;6.32;90.15
71128;SHT30;59249;59.736;30.568;2024-03-23T09:48:47;6.46;89.76
71128;SHT30;59249;59.736;30.568;2024-03-23T09:51:15;6.42;90.29
71128;SHT30;59249;59.736;30.568;2024-03-23T09:53:54;6.48;90.31
71128;SHT30;59249;59.736;30.568;2024-03-23T09:56:27;6.60;90.90
71128;SHT30;59249;59.736;30.568;2024-03-23T09:59:01;6.75;89.19
71128;SHT30;59249;59.736;30.568;2024-03-23T10:01:31;6.74;88.97
71128;SHT30;59249;59.736;30.568;2024-03-23T10:03:59;6.70;89.21
71128;SHT30;59249;59.736;30.568;2024-03-23T10:06:26;6.70;88.78
71128;SHT30;59249;59.736;30.568;2024-03-23T10:08:55;6.72;89.63
71128;SHT30;59249;59.736;30.568;2024-03-23T10:11:26;6.84;89.75
71128;SHT30;59249;59.736;30.568;2024-03-23T10:13:56;6.80;89.76
71128;SHT30;59249;59.736;30.568;2024-03-23T10:16:24;6.94;88.97
71128;SHT30;59249;59.736;30.568;2024-03-23T10:18:54;6.80;88.24
71128;SHT30;59249;59.736;30.568;2024-03-23T10:21:28;6.79;88.02
71128;SHT30;59249;59.736;30.568;2024-03-23T10:24:09;6.77;87.99
71128;SHT30;59249;59.736;30.568;2024-03-23T10:26:39;6.72;88.17
71128;SHT30;59249;59.736;30.568;2024-03-23T10:29:08;6.61;89.15
71128;SHT30;59249;59.736;30.568;2024-03-23T10:31:38;6.49;88.89
71128;SHT30;59249;59.736;30.568;2024-03-23T10:34:25;6.43;88.32
71128;SHT30;59249;59.736;30.568;2024-03-23T10:36:54;6.38;87.68
71128;SHT30;59249;59.736;30.568;2024-03-23T10:39:23;6.18;88.46
71128;SHT30;59249;59.736;30.568;2024-03-23T10:41:50;6.16;89.56
71128;SHT30;59249;59.736;30.568;2024-03-23T10:44:20;6.17;88.96
71128;SHT30;59249;59.736;30.568;2024-03-23T10:46:47;6.04;89.07
71128;SHT30;59249;59.736;30.568;2024-03-23T10:49:17;6.00;88.81
71128;SHT30;59249;59.736;30.568;2024-03-23T10:52:04;5.85;88.45
71128;SHT30;59249;59.736;30.568;2024-03-23T10:54:42;5.85;88.79
71128;SHT30;59249;59.736;30.568;2024-03-23T10:57:17;5.79;88.90
71128;SHT30;59249;59.736;30.568;2024-03-23T10:59:46;5.76;88.12
71128;SHT30;59249;59.736;30.568;2024-03-23T11:02:20;5.82;88.85
71128;SHT30;59249;59.736;30.568;2024-03-23T11:04:55;5.79;88.34
71128;SHT30;59249;59.736;30.568;2024-03-23T11:07:30;5.82;88.60
71128;SHT30;59249;59.736;30.568;2024-03-23T11:10:00;5.60;88.49
71128;SHT30;59249;59.736;30.568;2024-03-23T11:12:31;5.61;87.78
71128;SHT30;59249;59.736;30.568;2024-03-23T11:15:04;5.51;88.62
71128;SHT30;59249;59.736;30.568;2024-03-23T11:17:32;5.53;88.78
71128;SHT30;59249;59.736;30.568;2024-03-23T11:20:03;5.34;89.63
71128;SHT30;59249;59.736;30.568;2024-03-23T11:22:43;5.30;89.37
71128;SHT30;59249;59.736;30.568;2024-03-23T11:25:19;5.21;89.98
71128;SHT30;59249;59.736;30.568;2024-03-23T11:27:48;5.29;90.24
71128;SHT30;59249;59.736;30.568;2024-03-23T11:30:25;5.23;90.42
71128;SHT30;59249;59.736;30.568;2024-03-23T11:33:03;5.26;90.48
71128;SHT30;59249;59.736;30.568;2024-03-23T11:35:45;5.30;90.36
71128;SHT30;59249;59.736;30.568;2024-03-23T11:38:14;5.30;91.06
71128;SHT30;59249;59.736;30.568;2024-03-23T11:40:47;5.29;91.00
71128;SHT30;59249;59.736;30.568;2024-03-23T11:43:18;5.20;91.15
71128;SHT30;59249;59.736;30.568;2024-03-23T11:45:50;5.17;90.54
71128;SHT30;59249;59.736;30.568;2024-03-23T11:48:21;5.21;90.60
71128;SHT30;59249;59.736;30.568;2024-03-23T11:50:57;5.09;91.01
71128;SHT30;59249;59.736;30.568;2024-03-23T11:53:32;5.17;91.29
71128;SHT30;59249;59.736;30.568;2024-03-23T11:56:04;5.13;91.28
71128;SHT30;59249;59.736;30.568;2024-03-23T11:58:35;5.11;90.89
71128;SHT30;59249;59.736;30.568;2024-03-23T12:01:09;5.08;90.42
71128;SHT30;59249;59.736;30.568;2024-03-23T12:03:44;5.06;90.90
71128;SHT30;59249;59.736;30.568;2024-03-23T12:06:19;5.09;91.46
71128;SHT30;59249;59.736;30.568;2024-03-23T12:08:48;5.07;91.38
71128;SHT30;59249;59.736;30.568;2024-03-23T12:11:17;5.14;91.52
71128;SHT30;59249;59.736;30.568;2024-03-23T12:13:46;5.07;91.22
71128;SHT30;59249;59.736;30.568;2024-03-23T12:16:17;5.03;91.22
71128;SHT30;59249;59.736;30.568;2024-03-23T12:18:50;4.95;91.11
71128;SHT30;59249;59.736;30.568;2024-03-23T12:21:21;4.92;91.16
71128;SHT30;59249;59.736;30.568;2024-03-23T12:23:49;4.81;91.28
71128;SHT30;59249;59.736;30.568;2024-03-23T12:26:18;4.77;91.56
71128;SHT30;59249;59.736;30.568;2024-03-23T12:28:46;4.77;91.54
71128;SHT30;59249;59.736;30.568;2024-03-23T12:31:20;4.78;91.54
71128;SHT30;59249;59.736;30.568;2024-03-23T12:33:47;4.77;91.10
71128;SHT30;59249;59.736;30.568;2024-03-23T12:36:15;4.84;91.09
71128;SHT30;59249;59.736;30.568;2024-03-23T12:38:45;4.86;91.44
71128;SHT30;59249;59.736;30.568;2024-03-23T12:41:16;4.93;91.17
71128;SHT30;59249;59.736;30.568;2024-03-23T12:43:48;5.00;90.54
71128;SHT30;59249;59.736;30.568;2024-03-23T12:46:17;4.91;90.21
71128;SHT30;59249;59.736;30.568;2024-03-23T12:48:45;4.84;90.35
71128;SHT30;59249;59.736;30.568;2024-03-23T12:51:13;4.90;90.22
71128;SHT30;59249;59.736;30.568;2024-03-23T12:53:40;4.92;90.42
71128;SHT30;59249;59.736;30.568;2024-03-23T12:56:17;4.85;90.07
71128;SHT30;59249;59.736;30.568;2024-03-23T12:58:45;4.81;90.29
71128;SHT30;59249;59.736;30.568;2024-03-23T13:01:26;4.77;90.24
71128;SHT30;59249;59.736;30.568;2024-03-23T13:03:57;4.60;90.21
71128;SHT30;59249;59.736;30.568;2024-03-23T13:06:26;4.52;90.60
71128;SHT30;59249;59.736;30.568;2024-03-23T13:08:54;4.75;90.34
71128;SHT30;59249;59.736;30.568;2024-03-23T13:11:24;4.69;90.06
71128;SHT30;59249;59.736;30.568;2024-03-23T13:13:52;4.67;89.86
71128;SHT30;59249;59.736;30.568;2024-03-23T13:16:20;4.57;90.13
71128;SHT30;59249;59.736;30.568;2024-03-23T13:18:47;4.71;90.43
71128;SHT30;59249;59.736;30.568;2024-03-23T13:21:15;4.68;90.63
71128;SHT30;59249;59.736;30.568;2024-03-23T13:23:46;4.74;90.37
71128;SHT30;59249;59.736;30.568;2024-03-23T13:26:15;4.69;90.14
71128;SHT30;59249;59.736;30.568;2024-03-23T13:28:43;4.67;90.15
71128;SHT30;59249;59.736;30.568;2024-03-23T13:31:12;4.68;90.43
71128;SHT30;59249;59.736;30.568;2024-03-23T13:33:40;4.67;90.34
71128;SHT30;59249;59.736;30.568;2024-03-23T13:36:10;4.51;90.47
71128;SHT30;59249;59.736;30.568;2024-03-23T13:38:40;4.65;90.42
71128;SHT30;59249;59.736;30.568;2024-03-23T13:41:14;4.65;90.10
71128;SHT30;59249;59.736;30.568;2024-03-23T13:43:51;4.54;89.95
71128;SHT30;59249;59.736;30.568;2024-03-23T13:46:19;4.68;89.36
71128;SHT30;59249;59.736;30.568;2024-03-23T13:48:46;4.65;89.07
71128;SHT30;59249;59.736;30.568;2024-03-23T13:51:15;4.60;89.50
71128;SHT30;59249;59.736;30.568;2024-03-23T13:53:50;4.62;88.71
71128;SHT30;59249;59.736;30.568;2024-03-23T13:56:20;4.68;88.13
71128;SHT30;59249;59.736;30.568;2024-03-23T13:58:47;4.65;88.02
71128;SHT30;59249;59.736;30.568;2024-03-23T14:01:19;4.63;88.11
71128;SHT30;59249;59.736;30.568;2024-03-23T14:03:59;4.69;87.88
71128;SHT30;59249;59.736;30.568;2024-03-23T14:06:27;4.68;87.58
71128;SHT30;59249;59.736;30.568;2024-03-23T14:08:54;4.63;87.65
71128;SHT30;59249;59.736;30.568;2024-03-23T14:11:22;4.62;87.85
71128;SHT30;59249;59.736;30.568;2024-03-23T14:13:49;4.63;87.58
71128;SHT30;59249;59.736;30.568;2024-03-23T14:16:18;4.60;87.99
71128;SHT30;59249;59.736;30.568;2024-03-23T14:18:48;4.68;87.92
71128;SHT30;59249;59.736;30.568;2024-03-23T14:21:17;4.72;88.09
71128;SHT30;59249;59.736;30.568;2024-03-23T14:23:45;4.77;87.87
71128;SHT30;59249;59.736;30.568;2024-03-23T14:26:13;4.85;87.45
71128;SHT30;59249;59.736;30.568;2024-03-23T14:28:41;4.74;87.58
71128;SHT30;59249;59.736;30.568;2024-03-23T14:31:09;4.77;87.35
71128;SHT30;59249;59.736;30.568;2024-03-23T14:33:40;4.75;87.56
71128;SHT30;59249;59.736;30.568;2024-03-23T14:36:13;4.75;87.41
71128;SHT30;59249;59.736;30.568;2024-03-23T14:38:47;4.79;87.16
71128;SHT30;59249;59.736;30.568;2024-03-23T14:41:17;4.79;87.22
71128;SHT30;59249;59.736;30.568;2024-03-23T14:43:45;4.84;87.18
71128;SHT30;59249;59.736;30.568;2024-03-23T14:46:16;4.72;87.26
71128;SHT30;59249;59.736;30.568;2024-03-23T14:48:46;4.79;87.18
71128;SHT30;59249;59.736;30.568;2024-03-23T14:51:13;4.75;87.32
71128;SHT30;59249;59.736;30.568;2024-03-23T14:53:45;4.84;87.16
71128;SHT30;59249;59.736;30.568;2024-03-23T14:56:13;4.79;87.04
71128;SHT30;59249;59.736;30.568;2024-03-23T14:58:42;4.71;87.08
71128;SHT30;59249;59.736;30.568;2024-03-23T15:01:12;4.71;87.09
71128;SHT30;59249;59.736;30.568;2024-03-23T15:03:40;4.75;86.99
71128;SHT30;59249;59.736;30.568;2024-03-23T15:06:11;4.75;87.05
71128;SHT30;59249;59.736;30.568;2024-03-23T15:08:39;4.76;87.28
71128;SHT30;59249;59.736;30.568;2024-03-23T15:11:07;4.78;87.45
71128;SHT30;59249;59.736;30.568;2024-03-23T15:13:38;4.75;87.60
71128;SHT30;59249;59.736;30.568;2024-03-23T15:16:06;4.69;87.40
71128;SHT30;59249;59.736;30.568;2024-03-23T15:18:34;4.81;87.56
71128;SHT30;59249;59.736;30.568;2024-03-23T15:21:03;4.72;87.51
71128;SHT30;59249;59.736;30.568;2024-03-23T15:23:38;4.74;87.81
71128;SHT30;59249;59.736;30.568;2024-03-23T15:26:11;4.71;87.62
71128;SHT30;59249;59.736;30.568;2024-03-23T15:28:39;4.74;87.75
71128;SHT30;59249;59.736;30.568;2024-03-23T15:31:11;4.76;87.80
71128;SHT30;59249;59.736;30.568;2024-03-23T15:33:40;4.79;87.84
71128;SHT30;59249;59.736;30.568;2024-03-23T15:36:07;4.71;88.04
71128;SHT30;59249;59.736;30.568;2024-03-23T15:38:37;4.69;87.92
71128;SHT30;59249;59.736;30.568;2024-03-23T15:41:07;4.66;87.84
71128;SHT30;59249;59.736;30.568;2024-03-23T15:43:35;4.67;88.21
71128;SHT30;59249;59.736;30.568;2024-03-23T15:46:04;4.60;88.60
71128;SHT30;59249;59.736;30.568;2024-03-23T15:48:32;4.68;88.36
71128;SHT30;59249;59.736;30.568;2024-03-23T15:51:04;4.79;88.30
71128;SHT30;59249;59.736;30.568;2024-03-23T15:53:36;4.77;88.50
71128;SHT30;59249;59.736;30.568;2024-03-23T15:56:04;4.75;88.61
71128;SHT30;59249;59.736;30.568;2024-03-23T15:58:36;4.72;88.64
71128;SHT30;59249;59.736;30.568;2024-03-23T16:01:07;4.76;88.70
71128;SHT30;59249;59.736;30.568;2024-03-23T16:03:51;4.75;88.87
71128;SHT30;59249;59.736;30.568;2024-03-23T16:06:19;4.67;89.18
71128;SHT30;59249;59.736;30.568;2024-03-23T16:08:51;4.68;89.27
71128;SHT30;59249;59.736;30.568;2024-03-23T16:11:20;4.70;89.32
71128;SHT30;59249;59.736;30.568;2024-03-23T16:13:48;4.81;89.24
71128;SHT30;59249;59.736;30.568;2024-03-23T16:16:18;4.86;89.07
71128;SHT30;59249;59.736;30.568;2024-03-23T16:18:49;4.81;89.15
71128;SHT30;59249;59.736;30.568;2024-03-23T16:21:19;4.79;89.22
71128;SHT30;59249;59.736;30.568;2024-03-23T16:23:48;4.78;89.08
71128;SHT30;59249;59.736;30.568;2024-03-23T16:26:20;4.77;89.27
71128;SHT30;59249;59.736;30.568;2024-03-23T16:28:48;4.65;89.62
71128;SHT30;59249;59.736;30.568;2024-03-23T16:31:16;4.60;89.61
71128;SHT30;59249;59.736;30.568;2024-03-23T16:33:43;4.70;89.73
71128;SHT30;59249;59.736;30.568;2024-03-23T16:36:11;4.65;89.89
71128;SHT30;59249;59.736;30.568;2024-03-23T16:38:41;4.60;90.29
71128;SHT30;59249;59.736;30.568;2024-03-23T16:41:11;4.60;90.25
71128;SHT30;59249;59.736;30.568;2024-03-23T16:43:44;4.65;90.36